Time;durP1;ratioP1;P1;durP2;ratioP2;P2;SDS_P1;SDS_P2;PMS_P1;PMS_P2;Temp;Humidity;BMP_temperature;BMP_pressure;BME280_temperature;BME280_humidity;BME280_pressure;Samples;Min_cycle;Max_cycle;Signal;HPM_P1;HPM_P2
2023/04/18 00:03:28;;;;;;;10.80;6.70;;;8.10;99.90;;;;;;7305437;32;20100;-57
2023/04/18 00:07:30;;;;;;;9.80;6.50;;;8.10;99.90;;;;;;7308323;32;20107;-58
2023/04/18 00:11:33;;;;;;;10.15;7.05;;;8.10;99.90;;;;;;7302598;32;20583;-57
2023/04/18 00:15:35;;;;;;;9.95;7.25;;;8.10;99.90;;;;;;7302703;32;20965;-57
2023/04/18 00:19:42;;;;;;;11.48;6.85;;;8.00;99.90;;;;;;7307582;32;20195;-57
2023/04/18 00:23:45;;;;;;;13.27;7.23;;;8.00;99.90;;;;;;7306136;32;20116;-57
2023/04/18 00:27:46;;;;;;;13.95;7.25;;;7.90;99.90;;;;;;7301416;32;20108;-56
2023/04/18 00:31:48;;;;;;;11.23;6.95;;;7.90;99.90;;;;;;7301848;32;20331;-56
2023/04/18 00:35:50;;;;;;;10.77;7.37;;;7.90;99.90;;;;;;7306084;32;20129;-58
2023/04/18 00:39:52;;;;;;;11.12;7.18;;;7.70;99.90;;;;;;7298582;32;20231;-57
2023/04/18 00:43:54;;;;;;;12.70;7.28;;;7.70;99.90;;;;;;7305041;32;20405;-56
2023/04/18 00:47:56;;;;;;;11.23;7.43;;;7.70;99.90;;;;;;7301292;32;20187;-56
2023/04/18 00:51:58;;;;;;;13.48;7.93;;;7.60;99.90;;;;;;7301490;32;20117;-57
2023/04/18 00:56:00;;;;;;;12.98;8.10;;;7.50;99.90;;;;;;7305201;32;20230;-56
2023/04/18 01:00:08;;;;;;;10.30;7.93;;;7.50;99.90;;;;;;7301029;32;20249;-57
2023/04/18 01:04:10;;;;;;;11.18;8.30;;;7.40;99.90;;;;;;7304828;32;20138;-56
2023/04/18 01:08:13;;;;;;;12.82;8.80;;;7.40;99.90;;;;;;7312045;32;20517;-57
2023/04/18 01:12:15;;;;;;;11.12;8.20;;;7.40;99.90;;;;;;7299815;32;20145;-57
2023/04/18 01:16:17;;;;;;;14.07;8.73;;;7.30;99.90;;;;;;7296260;32;20124;-57
2023/04/18 01:20:20;;;;;;;14.05;8.40;;;7.30;99.90;;;;;;7307150;32;20203;-57
2023/04/18 01:24:24;;;;;;;13.45;8.20;;;7.20;99.90;;;;;;7299253;32;20798;-57
2023/04/18 01:28:26;;;;;;;13.75;9.30;;;7.20;99.90;;;;;;7302964;32;20207;-57
2023/04/18 01:32:28;;;;;;;13.48;9.10;;;7.10;99.90;;;;;;7299227;32;20111;-56
2023/04/18 01:36:30;;;;;;;15.30;8.73;;;7.10;99.90;;;;;;7303953;32;20216;-58
2023/04/18 01:40:32;;;;;;;10.48;7.25;;;7.00;99.90;;;;;;7299668;32;20153;-56
2023/04/18 01:44:34;;;;;;;12.37;8.30;;;7.00;99.90;;;;;;7301010;32;20154;-57
2023/04/18 01:48:35;;;;;;;15.88;9.07;;;6.90;99.90;;;;;;7296693;32;20097;-56
2023/04/18 01:52:37;;;;;;;11.90;8.50;;;6.90;99.90;;;;;;7302376;32;20130;-57
2023/04/18 01:56:39;;;;;;;11.73;8.65;;;6.90;99.90;;;;;;7310073;32;20907;-57
2023/04/18 02:00:40;;;;;;;13.90;8.90;;;6.80;99.90;;;;;;7306605;32;20088;-57
2023/04/18 02:04:42;;;;;;;12.63;8.98;;;6.80;99.90;;;;;;7305672;32;20113;-56
2023/04/18 02:08:44;;;;;;;11.27;8.05;;;6.80;99.90;;;;;;7302355;32;20675;-56
2023/04/18 02:12:46;;;;;;;11.12;8.45;;;6.70;99.90;;;;;;7304013;32;20527;-56
2023/04/18 02:16:47;;;;;;;11.73;8.25;;;6.70;99.90;;;;;;7296613;32;20193;-56
2023/04/18 02:20:50;;;;;;;12.48;9.60;;;6.60;99.90;;;;;;7295645;32;20337;-56
2023/04/18 02:24:52;;;;;;;15.00;9.48;;;6.50;99.90;;;;;;7297890;32;20132;-56
2023/04/18 02:28:54;;;;;;;13.38;9.75;;;6.50;99.90;;;;;;7298319;32;20174;-57
2023/04/18 02:32:56;;;;;;;11.70;8.73;;;6.40;99.90;;;;;;7291804;32;20608;-56
2023/04/18 02:36:57;;;;;;;16.33;10.02;;;6.40;99.90;;;;;;7299247;32;20154;-56
2023/04/18 02:40:59;;;;;;;14.82;9.45;;;6.40;99.90;;;;;;7296302;32;20201;-56
2023/04/18 02:45:01;;;;;;;12.52;9.20;;;6.40;99.90;;;;;;7299079;32;20228;-56
2023/04/18 02:49:02;;;;;;;11.12;8.55;;;6.40;99.90;;;;;;7299757;32;20225;-58
2023/04/18 02:53:04;;;;;;;11.23;9.00;;;6.30;99.90;;;;;;7304335;32;20121;-56
2023/04/18 02:57:06;;;;;;;11.18;7.80;;;6.30;99.90;;;;;;7313409;32;20107;-55
2023/04/18 03:01:08;;;;;;;11.35;8.80;;;6.30;99.90;;;;;;7299554;32;20191;-56
2023/04/18 03:05:09;;;;;;;14.57;8.90;;;6.20;99.90;;;;;;7305418;32;20176;-56
2023/04/18 03:09:11;;;;;;;12.20;7.87;;;6.20;99.90;;;;;;7313974;32;20518;-57
2023/04/18 03:13:14;;;;;;;11.15;7.93;;;6.20;99.90;;;;;;7310091;32;20088;-56
2023/04/18 03:17:16;;;;;;;12.15;7.70;;;6.20;99.90;;;;;;7318291;32;20104;-56
2023/04/18 03:21:18;;;;;;;9.45;7.72;;;6.10;99.90;;;;;;7304249;32;20092;-56
2023/04/18 03:25:20;;;;;;;9.50;7.57;;;6.10;99.90;;;;;;7307892;32;20294;-56
2023/04/18 03:29:21;;;;;;;13.48;8.30;;;6.00;99.90;;;;;;7307769;32;20299;-56
2023/04/18 03:33:23;;;;;;;10.82;7.37;;;6.10;99.90;;;;;;7306913;32;20223;-58
2023/04/18 03:37:25;;;;;;;9.63;6.97;;;6.00;99.90;;;;;;7305751;32;20119;-56
2023/04/18 03:41:27;;;;;;;9.50;7.32;;;6.00;99.90;;;;;;7308394;32;20550;-56
2023/04/18 03:45:29;;;;;;;10.35;7.12;;;6.00;99.90;;;;;;7310321;32;20168;-56
2023/04/18 03:49:31;;;;;;;11.00;7.60;;;5.90;99.90;;;;;;7309420;32;20176;-57
2023/04/18 03:53:32;;;;;;;9.13;6.75;;;5.90;99.90;;;;;;7306612;32;20175;-55
2023/04/18 03:57:34;;;;;;;8.30;6.75;;;5.90;99.90;;;;;;7310070;32;20116;-55
2023/04/18 04:01:36;;;;;;;9.63;7.05;;;5.90;99.90;;;;;;7305712;32;20150;-55
2023/04/18 04:05:38;;;;;;;8.57;6.22;;;5.90;99.90;;;;;;7314235;32;20129;-55
2023/04/18 04:09:39;;;;;;;10.00;7.15;;;5.90;99.90;;;;;;7305915;32;20237;-56
2023/04/18 04:13:41;;;;;;;9.95;7.10;;;5.80;99.90;;;;;;7304670;32;20104;-56
2023/04/18 04:17:43;;;;;;;9.32;7.15;;;5.80;99.90;;;;;;7301011;32;20479;-55
2023/04/18 04:21:44;;;;;;;9.93;7.47;;;5.80;99.90;;;;;;7302147;32;20092;-56
2023/04/18 04:25:46;;;;;;;10.18;7.35;;;5.70;99.90;;;;;;7311645;32;20193;-56
2023/04/18 04:29:48;;;;;;;10.90;7.55;;;5.80;99.90;;;;;;7308828;32;21535;-55
2023/04/18 04:33:50;;;;;;;10.43;7.03;;;5.90;99.90;;;;;;7299810;32;20205;-56
2023/04/18 04:37:51;;;;;;;11.18;8.05;;;5.80;99.90;;;;;;7301804;32;20326;-55
2023/04/18 04:41:56;;;;;;;10.38;7.35;;;5.80;99.90;;;;;;7306286;32;20183;-55
2023/04/18 04:45:58;;;;;;;9.95;8.07;;;5.90;99.90;;;;;;7309013;32;20165;-57
2023/04/18 04:50:00;;;;;;;12.57;9.15;;;5.90;99.90;;;;;;7299870;32;20883;-58
2023/04/18 04:54:02;;;;;;;11.60;8.48;;;5.80;99.90;;;;;;7313315;32;20403;-57
2023/04/18 04:58:04;;;;;;;12.88;8.80;;;5.90;99.90;;;;;;7306708;32;20132;-57
2023/04/18 05:02:05;;;;;;;12.65;9.15;;;5.90;99.90;;;;;;7311247;32;20222;-57
2023/04/18 05:06:07;;;;;;;14.52;9.77;;;5.90;99.90;;;;;;7314046;32;20126;-56
2023/04/18 05:10:09;;;;;;;14.40;9.43;;;5.90;99.90;;;;;;7303382;32;20190;-57
2023/04/18 05:14:11;;;;;;;12.98;9.00;;;6.00;99.90;;;;;;7313859;32;20251;-56
2023/04/18 05:18:13;;;;;;;12.43;9.48;;;6.10;99.90;;;;;;7299161;32;20123;-57
2023/04/18 05:22:15;;;;;;;13.38;9.25;;;6.10;99.90;;;;;;7304616;32;20129;-56
2023/04/18 05:26:17;;;;;;;15.23;11.15;;;6.20;99.90;;;;;;7306483;32;20104;-57
2023/04/18 05:30:19;;;;;;;14.85;10.35;;;6.40;99.90;;;;;;7299109;32;20108;-57
2023/04/18 05:34:21;;;;;;;14.85;11.60;;;6.50;99.90;;;;;;7304446;32;20119;-57
2023/04/18 05:38:23;;;;;;;14.18;11.48;;;6.60;99.90;;;;;;7308824;32;20164;-58
2023/04/18 05:42:24;;;;;;;16.08;11.32;;;6.80;99.90;;;;;;7300964;32;20102;-57
2023/04/18 05:46:26;;;;;;;15.82;12.25;;;6.80;99.90;;;;;;7300489;32;20127;-57
2023/04/18 05:50:28;;;;;;;14.38;11.93;;;6.90;99.90;;;;;;7300951;32;20107;-56
2023/04/18 05:54:30;;;;;;;13.88;11.45;;;6.90;99.90;;;;;;7302119;32;20215;-57
2023/04/18 05:58:31;;;;;;;16.70;11.77;;;7.00;99.90;;;;;;7303480;32;20154;-58
2023/04/18 06:02:33;;;;;;;13.88;11.82;;;7.20;99.90;;;;;;7303762;32;20550;-57
2023/04/18 06:06:35;;;;;;;15.68;11.70;;;7.40;99.90;;;;;;7300656;32;20130;-57
2023/04/18 06:10:37;;;;;;;16.08;10.95;;;7.40;99.90;;;;;;7299558;32;20218;-57
2023/04/18 06:14:39;;;;;;;14.05;10.27;;;7.20;99.90;;;;;;7301204;32;20599;-57
2023/04/18 06:18:41;;;;;;;14.38;11.10;;;7.40;99.90;;;;;;7296697;32;20219;-57
2023/04/18 06:22:43;;;;;;;15.15;12.00;;;7.30;99.90;;;;;;7307885;32;20117;-58
2023/04/18 06:26:45;;;;;;;13.25;11.00;;;7.40;99.90;;;;;;7305231;32;20234;-56
2023/04/18 06:30:46;;;;;;;11.95;9.65;;;7.50;99.90;;;;;;7302086;32;20475;-56
2023/04/18 06:34:49;;;;;;;18.37;12.10;;;7.40;99.90;;;;;;7302725;32;20225;-56
2023/04/18 06:38:50;;;;;;;13.35;10.20;;;7.50;99.90;;;;;;7302364;32;20203;-57
2023/04/18 06:42:52;;;;;;;13.68;9.98;;;7.60;99.90;;;;;;7317990;32;20859;-56
2023/04/18 06:46:54;;;;;;;12.95;9.57;;;7.60;99.90;;;;;;7308632;32;20119;-56
2023/04/18 06:50:56;;;;;;;11.70;9.75;;;7.70;99.90;;;;;;7304090;32;20111;-56
2023/04/18 06:54:58;;;;;;;11.10;8.93;;;7.80;99.90;;;;;;7312512;32;20325;-56
2023/04/18 06:59:00;;;;;;;12.32;8.70;;;7.80;99.90;;;;;;7310502;32;20229;-56
2023/04/18 07:03:08;;;;;;;10.98;8.57;;;7.90;99.90;;;;;;7308637;32;20121;-57
2023/04/18 07:07:12;;;;;;;12.75;10.27;;;7.80;99.90;;;;;;7311469;32;20223;-57
2023/04/18 07:11:14;;;;;;;10.95;9.25;;;7.70;99.90;;;;;;7312363;32;20698;-57
2023/04/18 07:15:16;;;;;;;11.35;10.15;;;7.70;99.90;;;;;;7312224;32;20303;-57
2023/04/18 07:19:18;;;;;;;12.73;9.02;;;7.80;99.90;;;;;;7313273;32;20292;-56
2023/04/18 07:23:19;;;;;;;11.55;8.93;;;8.00;99.90;;;;;;7304703;32;20221;-56
2023/04/18 07:27:21;;;;;;;13.43;9.57;;;8.20;99.90;;;;;;7310564;32;20816;-57
2023/04/18 07:31:24;;;;;;;11.90;9.48;;;8.20;99.90;;;;;;7304527;32;20088;-57
2023/04/18 07:35:26;;;;;;;11.93;10.10;;;8.30;99.90;;;;;;7308424;32;21078;-58
2023/04/18 07:39:28;;;;;;;14.25;10.75;;;8.40;99.90;;;;;;7310090;32;20854;-57
2023/04/18 07:43:29;;;;;;;14.07;9.93;;;8.60;99.90;;;;;;7313056;32;20145;-57
2023/04/18 07:47:31;;;;;;;12.00;9.85;;;8.70;99.90;;;;;;7313275;32;20224;-58
2023/04/18 07:51:34;;;;;;;12.25;10.05;;;8.60;99.90;;;;;;7306420;32;20120;-58
2023/04/18 07:55:36;;;;;;;12.55;9.10;;;8.60;99.90;;;;;;7303729;32;20230;-57
2023/04/18 07:59:38;;;;;;;12.73;9.25;;;8.80;99.90;;;;;;7302714;32;20118;-58
2023/04/18 08:03:40;;;;;;;12.63;9.88;;;8.70;99.90;;;;;;7311157;32;20142;-57
2023/04/18 08:07:42;;;;;;;14.43;10.38;;;8.70;99.90;;;;;;7305155;32;20099;-57
2023/04/18 08:11:44;;;;;;;12.85;9.73;;;8.60;99.90;;;;;;7307830;32;20496;-58
2023/04/18 08:15:46;;;;;;;13.75;10.00;;;8.70;99.90;;;;;;7300487;32;20150;-56
2023/04/18 08:19:47;;;;;;;12.40;9.57;;;8.80;99.90;;;;;;7304959;32;20184;-57
2023/04/18 08:23:49;;;;;;;10.93;9.23;;;8.80;99.90;;;;;;7300095;32;20526;-57
2023/04/18 08:27:51;;;;;;;10.60;8.95;;;8.90;99.90;;;;;;7311059;32;20149;-57
2023/04/18 08:31:53;;;;;;;11.32;9.18;;;9.10;99.90;;;;;;7305756;32;20255;-58
2023/04/18 08:35:55;;;;;;;13.35;9.88;;;9.10;99.90;;;;;;7309375;32;20228;-57
2023/04/18 08:39:56;;;;;;;11.32;9.70;;;8.90;99.90;;;;;;7309380;32;20438;-57
2023/04/18 08:43:58;;;;;;;15.13;10.57;;;9.00;99.90;;;;;;7305849;32;20245;-57
2023/04/18 08:48:02;;;;;;;12.35;9.77;;;8.90;99.90;;;;;;7311741;32;20162;-56
2023/04/18 08:52:15;;;;;;;12.68;10.10;;;9.10;99.90;;;;;;7306204;32;20127;-56
2023/04/18 08:56:21;;;;;;;16.05;10.63;;;8.90;99.90;;;;;;7311760;32;20112;-56
2023/04/18 09:00:22;;;;;;;12.57;10.15;;;9.00;99.90;;;;;;7317738;32;20202;-56
2023/04/18 09:04:44;;;;;;;17.42;11.43;;;8.90;99.90;;;;;;7306247;32;20272;-57
2023/04/18 09:09:02;;;;;;;13.40;11.02;;;8.90;99.90;;;;;;7306190;32;20246;-57
2023/04/18 09:13:04;;;;;;;15.00;11.77;;;9.00;99.90;;;;;;7303268;32;20241;-57
2023/04/18 09:17:06;;;;;;;14.32;10.88;;;9.10;99.90;;;;;;7298028;32;20231;-56
2023/04/18 09:21:18;;;;;;;14.82;11.45;;;9.10;99.90;;;;;;7299287;32;20490;-55
2023/04/18 09:25:45;;;;;;;16.58;11.57;;;9.10;99.90;;;;;;7306760;32;20107;-57
2023/04/18 09:29:53;;;;;;;14.05;11.35;;;8.80;99.90;;;;;;7299698;32;20214;-56
2023/04/18 09:34:23;;;;;;;15.23;11.45;;;9.00;99.90;;;;;;7306685;32;20218;-57
2023/04/18 09:38:39;;;;;;;15.50;11.75;;;9.30;99.90;;;;;;7296638;32;20107;-57
2023/04/18 09:42:41;;;;;;;17.55;10.65;;;9.20;99.90;;;;;;7307098;32;20189;-56
2023/04/18 09:46:45;;;;;;;17.37;11.65;;;9.30;99.90;;;;;;7297040;32;20795;-57
2023/04/18 09:50:49;;;;;;;15.77;11.70;;;9.30;99.90;;;;;;7301834;32;20253;-57
2023/04/18 09:54:57;;;;;;;15.82;11.70;;;9.00;99.90;;;;;;7307896;32;20283;-58
2023/04/18 09:59:08;;;;;;;16.42;11.80;;;9.40;99.90;;;;;;7303393;32;20123;-57
2023/04/18 10:03:12;;;;;;;14.20;11.20;;;9.40;99.90;;;;;;7304211;32;20123;-57
2023/04/18 10:07:16;;;;;;;17.40;11.95;;;9.40;99.90;;;;;;7303631;32;20153;-57
2023/04/18 10:11:18;;;;;;;16.70;11.50;;;9.50;99.90;;;;;;7307085;32;20228;-57
2023/04/18 10:15:23;;;;;;;15.30;11.43;;;9.70;99.90;;;;;;7312599;32;20130;-58
2023/04/18 10:19:27;;;;;;;13.77;10.52;;;10.30;99.90;;;;;;7301154;32;20161;-57
2023/04/18 10:23:34;;;;;;;14.50;10.38;;;11.00;99.90;;;;;;7307398;32;20382;-57
2023/04/18 10:27:56;;;;;;;16.20;11.18;;;11.00;99.90;;;;;;7302919;32;20213;-57
2023/04/18 10:32:05;;;;;;;13.95;11.05;;;11.10;99.90;;;;;;7303031;32;20640;-57
2023/04/18 10:36:12;;;;;;;15.15;11.48;;;10.70;99.90;;;;;;7301927;32;20218;-57
2023/04/18 10:40:14;;;;;;;15.98;11.93;;;10.80;99.90;;;;;;7313498;32;20135;-58
2023/04/18 10:44:21;;;;;;;14.45;11.23;;;11.90;99.90;;;;;;7306233;32;20640;-58
2023/04/18 10:48:28;;;;;;;17.05;10.80;;;12.80;99.90;;;;;;7300901;32;20103;-57
2023/04/18 10:52:30;;;;;;;15.13;11.65;;;13.10;99.90;;;;;;7295257;32;21926;-57
2023/04/18 10:56:32;;;;;;;13.80;11.45;;;12.20;99.90;;;;;;7307652;32;20107;-57
2023/04/18 11:00:34;;;;;;;13.40;11.12;;;12.00;99.90;;;;;;7299737;32;20149;-58
2023/04/18 11:04:36;;;;;;;15.23;11.27;;;12.00;99.90;;;;;;7307793;32;20104;-57
2023/04/18 11:08:38;;;;;;;16.17;12.63;;;11.50;99.90;;;;;;7301271;32;20573;-57
2023/04/18 11:12:40;;;;;;;15.70;12.00;;;10.80;99.90;;;;;;7311221;32;20817;-57
2023/04/18 11:16:42;;;;;;;15.02;11.63;;;11.00;99.90;;;;;;7300134;32;20332;-57
2023/04/18 11:20:49;;;;;;;15.77;11.73;;;11.00;99.90;;;;;;7299032;32;20160;-58
2023/04/18 11:24:55;;;;;;;15.90;11.43;;;10.90;99.90;;;;;;7306040;32;20120;-58
2023/04/18 11:28:57;;;;;;;16.60;12.37;;;10.90;99.90;;;;;;7305124;32;20184;-57
2023/04/18 11:33:07;;;;;;;15.20;11.15;;;11.10;99.90;;;;;;7300141;32;20092;-56
2023/04/18 11:37:09;;;;;;;16.12;11.95;;;11.00;99.90;;;;;;7308375;32;20486;-57
2023/04/18 11:41:13;;;;;;;18.25;11.65;;;11.00;99.90;;;;;;7308550;32;20155;-57
2023/04/18 11:45:15;;;;;;;17.98;11.90;;;11.00;99.90;;;;;;7306122;32;20293;-57
2023/04/18 11:49:28;;;;;;;14.68;11.27;;;10.90;99.90;;;;;;7304234;32;20127;-57
2023/04/18 11:53:37;;;;;;;13.68;11.02;;;11.20;99.90;;;;;;7297757;32;20191;-56
2023/04/18 11:57:40;;;;;;;12.82;10.43;;;12.30;99.90;;;;;;7316459;32;20138;-57
2023/04/18 12:01:42;;;;;;;14.32;10.23;;;14.30;99.90;;;;;;7312746;32;20117;-61
2023/04/18 12:05:44;;;;;;;13.90;10.98;;;15.30;99.90;;;;;;7303713;32;20116;-57
2023/04/18 12:09:46;;;;;;;15.38;10.60;;;15.70;99.90;;;;;;7306301;32;20134;-57
2023/04/18 12:13:48;;;;;;;12.07;10.50;;;15.70;99.90;;;;;;7310443;32;20233;-57
2023/04/18 12:17:52;;;;;;;15.65;11.30;;;15.20;99.90;;;;;;7302911;32;20272;-58
2023/04/18 12:22:05;;;;;;;16.95;12.10;;;14.40;99.90;;;;;;7305044;32;20245;-57
2023/04/18 12:26:19;;;;;;;17.95;12.43;;;13.20;99.90;;;;;;7310731;32;20501;-57
2023/04/18 12:30:24;;;;;;;14.27;11.70;;;12.30;99.90;;;;;;7307410;32;20482;-56
2023/04/18 12:34:26;;;;;;;16.67;12.85;;;12.10;99.90;;;;;;7297526;32;20186;-57
2023/04/18 12:38:28;;;;;;;16.55;13.32;;;11.80;99.90;;;;;;7307792;32;20199;-56
2023/04/18 12:42:29;;;;;;;17.37;12.27;;;11.70;99.90;;;;;;7320510;32;20104;-58
2023/04/18 12:46:31;;;;;;;16.35;13.40;;;11.80;99.90;;;;;;7304001;32;20501;-56
2023/04/18 12:50:33;;;;;;;19.00;14.07;;;11.60;99.90;;;;;;7301590;32;20107;-57
2023/04/18 12:54:35;;;;;;;17.37;12.77;;;11.70;99.90;;;;;;7312464;32;20172;-57
2023/04/18 12:58:39;;;;;;;17.37;13.70;;;12.40;99.90;;;;;;7320714;32;20711;-57
2023/04/18 13:02:43;;;;;;;16.65;13.32;;;13.00;99.90;;;;;;7305779;32;20556;-55
2023/04/18 13:06:45;;;;;;;14.43;11.20;;;13.80;99.90;;;;;;7310142;32;20088;-56
2023/04/18 13:10:46;;;;;;;15.20;11.18;;;15.40;99.90;;;;;;7306009;32;20107;-56
2023/04/18 13:14:48;;;;;;;15.75;12.88;;;15.50;99.90;;;;;;7311040;32;20165;-56
2023/04/18 13:18:50;;;;;;;13.20;10.98;;;15.90;99.90;;;;;;7296778;32;20233;-56
2023/04/18 13:22:51;;;;;;;12.90;10.95;;;16.30;99.90;;;;;;7308960;32;20440;-56
2023/04/18 13:26:54;;;;;;;12.20;10.35;;;16.10;99.90;;;;;;7306685;32;20148;-57
2023/04/18 13:30:55;;;;;;;12.02;10.80;;;16.70;99.90;;;;;;7298654;32;20724;-56
2023/04/18 13:34:57;;;;;;;13.77;10.95;;;16.80;99.90;;;;;;7302903;32;20099;-56
2023/04/18 13:38:59;;;;;;;15.20;11.45;;;16.30;99.90;;;;;;7304616;32;20130;-56
2023/04/18 13:43:00;;;;;;;12.68;11.30;;;16.60;99.90;;;;;;7303784;32;20096;-57
2023/04/18 13:47:03;;;;;;;14.50;11.07;;;16.50;99.90;;;;;;7300633;32;20276;-57
2023/04/18 13:51:05;;;;;;;13.55;11.98;;;16.20;99.90;;;;;;7302852;32;20127;-57
2023/04/18 13:55:09;;;;;;;17.87;12.73;;;16.10;99.90;;;;;;7307562;32;20129;-57
2023/04/18 13:59:10;;;;;;;14.50;10.40;;;16.40;99.90;;;;;;7300322;32;20741;-57
2023/04/18 14:03:13;;;;;;;12.80;11.12;;;16.70;99.90;;;;;;7298415;32;20203;-57
2023/04/18 14:07:15;;;;;;;13.82;11.30;;;16.70;99.90;;;;;;7312262;32;20095;-58
2023/04/18 14:11:17;;;;;;;11.60;10.23;;;17.50;99.90;;;;;;7299132;32;20329;-57
2023/04/18 14:15:18;;;;;;;12.25;10.95;;;17.50;99.90;;;;;;7308947;32;20704;-57
2023/04/18 14:19:20;;;;;;;13.75;11.35;;;16.80;99.90;;;;;;7310287;32;20764;-58
2023/04/18 14:23:22;;;;;;;11.98;10.63;;;16.70;99.90;;;;;;7300962;32;20236;-57
2023/04/18 14:27:24;;;;;;;12.68;11.12;;;16.60;99.90;;;;;;7300733;32;20203;-58
2023/04/18 14:31:27;;;;;;;12.20;11.00;;;15.90;99.90;;;;;;7311111;32;20147;-59
2023/04/18 14:35:29;;;;;;;14.45;11.35;;;16.00;99.90;;;;;;7307882;32;20311;-59
2023/04/18 14:39:31;;;;;;;11.88;10.65;;;16.80;99.90;;;;;;7300180;32;20100;-58
2023/04/18 14:43:33;;;;;;;11.77;10.57;;;16.80;99.90;;;;;;7311339;32;20297;-57
2023/04/18 14:47:34;;;;;;;11.52;10.15;;;16.30;99.90;;;;;;7303018;32;20241;-58
2023/04/18 14:51:36;;;;;;;12.73;11.40;;;15.90;99.90;;;;;;7301634;32;20122;-58
2023/04/18 14:55:38;;;;;;;13.15;10.98;;;16.50;99.90;;;;;;7302251;32;20586;-58
2023/04/18 14:59:39;;;;;;;12.30;10.98;;;16.00;99.90;;;;;;7298832;32;20136;-57
2023/04/18 15:03:41;;;;;;;13.85;11.70;;;15.90;99.90;;;;;;7310053;32;20231;-57
2023/04/18 15:07:44;;;;;;;13.62;10.35;;;15.20;99.90;;;;;;7304727;32;20209;-58
2023/04/18 15:11:45;;;;;;;12.40;11.10;;;14.90;99.90;;;;;;7308311;32;20873;-56
2023/04/18 15:15:54;;;;;;;12.80;11.43;;;14.90;99.90;;;;;;7306448;32;21183;-56
2023/04/18 15:19:57;;;;;;;14.60;12.00;;;14.70;99.90;;;;;;7305495;32;20766;-58
2023/04/18 15:23:59;;;;;;;12.93;11.07;;;14.60;99.90;;;;;;7311754;32;20171;-58
2023/04/18 15:28:01;;;;;;;14.25;10.85;;;14.50;99.90;;;;;;7312442;32;20207;-58
2023/04/18 15:32:03;;;;;;;12.68;10.88;;;14.80;99.90;;;;;;7308572;32;20251;-58
2023/04/18 15:36:05;;;;;;;14.70;12.57;;;14.90;99.90;;;;;;7302454;32;20218;-58
2023/04/18 15:40:10;;;;;;;13.27;11.10;;;14.60;99.90;;;;;;7302379;32;20095;-58
2023/04/18 15:44:12;;;;;;;13.60;12.20;;;14.50;99.90;;;;;;7303104;32;20493;-58
2023/04/18 15:48:14;;;;;;;14.02;12.48;;;14.40;99.90;;;;;;7306997;32;20187;-58
2023/04/18 15:52:16;;;;;;;14.48;12.45;;;14.10;99.90;;;;;;7306285;32;20689;-58
2023/04/18 15:56:17;;;;;;;14.75;13.18;;;13.90;99.90;;;;;;7307404;32;20195;-58
2023/04/18 16:00:19;;;;;;;16.05;13.20;;;13.70;99.90;;;;;;7305216;32;20099;-57
2023/04/18 16:04:22;;;;;;;15.68;13.68;;;13.50;99.90;;;;;;7308167;32;20108;-58
2023/04/18 16:08:24;;;;;;;14.07;11.82;;;13.40;99.90;;;;;;7304820;32;20123;-58
2023/04/18 16:12:25;;;;;;;15.43;12.93;;;13.40;99.90;;;;;;7309671;32;20138;-58
2023/04/18 16:16:27;;;;;;;15.00;13.10;;;13.40;99.90;;;;;;7310981;32;20142;-57
2023/04/18 16:20:32;;;;;;;14.87;13.27;;;13.40;99.90;;;;;;7305529;32;20214;-58
2023/04/18 16:24:33;;;;;;;17.83;13.82;;;13.30;99.90;;;;;;7307432;32;20308;-58
2023/04/18 16:28:38;;;;;;;14.85;13.27;;;13.40;99.90;;;;;;7308558;32;20100;-58
2023/04/18 16:32:39;;;;;;;14.80;12.95;;;13.40;99.90;;;;;;7305587;32;20210;-58
2023/04/18 16:36:41;;;;;;;14.43;12.93;;;13.30;99.90;;;;;;7308918;32;20150;-58
2023/04/18 16:40:43;;;;;;;16.45;13.35;;;13.30;99.90;;;;;;7301522;32;20215;-58
2023/04/18 16:44:46;;;;;;;14.98;13.25;;;13.20;99.90;;;;;;7302419;32;20112;-58
2023/04/18 16:48:47;;;;;;;14.77;13.15;;;13.20;99.90;;;;;;7309170;32;20880;-58
2023/04/18 16:52:52;;;;;;;15.30;13.65;;;13.20;99.90;;;;;;7308648;32;20249;-57
2023/04/18 16:56:54;;;;;;;24.27;18.50;;;13.20;99.90;;;;;;7311584;32;20286;-58
2023/04/18 17:00:56;;;;;;;39.80;28.73;;;13.10;99.90;;;;;;7310389;32;20096;-59
2023/04/18 17:04:57;;;;;;;13.85;12.43;;;13.20;99.90;;;;;;7301787;32;20186;-57
2023/04/18 17:08:59;;;;;;;15.93;12.73;;;13.00;99.90;;;;;;7298963;32;20091;-57
2023/04/18 17:13:02;;;;;;;23.50;18.33;;;12.90;99.90;;;;;;7299136;32;20154;-57
2023/04/18 17:17:04;;;;;;;15.18;13.57;;;12.90;99.90;;;;;;7298895;32;20356;-57
2023/04/18 17:21:06;;;;;;;14.77;12.93;;;12.90;99.90;;;;;;7306946;32;20134;-57
2023/04/18 17:25:08;;;;;;;14.82;13.10;;;12.80;99.90;;;;;;7297216;32;20280;-56
2023/04/18 17:29:09;;;;;;;13.52;12.02;;;12.80;99.90;;;;;;7304408;32;20193;-57
2023/04/18 17:33:11;;;;;;;15.25;13.30;;;12.70;99.90;;;;;;7301287;32;20809;-56
2023/04/18 17:37:14;;;;;;;14.45;11.50;;;12.60;99.90;;;;;;7305742;32;20132;-56
2023/04/18 17:41:17;;;;;;;14.57;13.07;;;12.50;99.90;;;;;;7300373;32;20186;-57
2023/04/18 17:45:20;;;;;;;16.45;14.18;;;12.40;99.90;;;;;;7307081;32;20125;-56
2023/04/18 17:49:21;;;;;;;15.23;13.10;;;12.40;99.90;;;;;;7306580;32;20173;-56
2023/04/18 17:53:23;;;;;;;15.93;13.30;;;12.30;99.90;;;;;;7300583;32;20202;-56
2023/04/18 17:57:25;;;;;;;14.00;12.50;;;12.20;99.90;;;;;;7307856;32;20123;-58
2023/04/18 18:01:29;;;;;;;16.02;13.88;;;12.20;99.90;;;;;;7304411;32;20203;-56
2023/04/18 18:05:31;;;;;;;15.30;13.55;;;12.10;99.90;;;;;;7300697;32;20590;-56
2023/04/18 18:09:32;;;;;;;15.40;13.80;;;12.00;99.90;;;;;;7308508;32;20129;-55
2023/04/18 18:13:34;;;;;;;16.65;13.88;;;11.90;99.90;;;;;;7298390;32;20395;-54
2023/04/18 18:17:36;;;;;;;18.15;14.65;;;11.80;99.90;;;;;;7304534;32;20171;-56
2023/04/18 18:21:38;;;;;;;15.52;13.85;;;11.70;99.90;;;;;;7299595;32;20111;-57
2023/04/18 18:25:40;;;;;;;16.33;14.57;;;11.70;99.90;;;;;;7296421;32;20171;-56
2023/04/18 18:29:42;;;;;;;17.40;15.10;;;11.60;99.90;;;;;;7300766;32;20235;-56
2023/04/18 18:33:43;;;;;;;16.33;14.52;;;11.50;99.90;;;;;;7302708;32;20104;-57
2023/04/18 18:37:45;;;;;;;18.20;14.90;;;11.40;99.90;;;;;;7298675;32;20131;-56
2023/04/18 18:41:47;;;;;;;16.75;15.05;;;11.20;99.90;;;;;;7307103;32;20253;-56
2023/04/18 18:45:48;;;;;;;16.65;14.50;;;11.20;99.90;;;;;;7308664;32;20130;-56
2023/04/18 18:49:50;;;;;;;17.75;14.82;;;11.20;99.90;;;;;;7302269;32;20108;-56
2023/04/18 18:53:52;;;;;;;16.67;14.87;;;11.10;99.90;;;;;;7303711;32;20174;-57
2023/04/18 18:57:53;;;;;;;17.08;14.10;;;11.10;99.90;;;;;;7309748;32;20182;-57
2023/04/18 19:01:55;;;;;;;16.42;14.48;;;10.90;99.90;;;;;;7307121;32;20195;-56
2023/04/18 19:05:57;;;;;;;17.92;14.63;;;10.90;99.90;;;;;;7304898;32;20130;-55
2023/04/18 19:10:00;;;;;;;16.67;14.80;;;10.80;99.90;;;;;;7305599;32;20218;-55
2023/04/18 19:14:02;;;;;;;16.92;14.50;;;10.70;99.90;;;;;;7301481;32;20238;-57
2023/04/18 19:18:03;;;;;;;16.05;14.35;;;10.70;99.90;;;;;;7304615;32;20127;-57
2023/04/18 19:22:05;;;;;;;18.02;14.55;;;10.60;99.90;;;;;;7297687;32;20437;-56
2023/04/18 19:26:08;;;;;;;15.60;13.52;;;10.60;99.90;;;;;;7300930;32;20149;-55
2023/04/18 19:30:10;;;;;;;15.43;13.82;;;10.60;99.90;;;;;;7298905;32;20733;-55
2023/04/18 19:34:12;;;;;;;15.63;14.02;;;10.50;99.90;;;;;;7305661;32;20116;-55
2023/04/18 19:38:14;;;;;;;14.87;13.25;;;10.40;99.90;;;;;;7302664;32;20314;-59
2023/04/18 19:42:15;;;;;;;15.60;14.00;;;10.40;99.90;;;;;;7305505;32;20321;-54
2023/04/18 19:46:17;;;;;;;16.15;13.27;;;10.30;99.90;;;;;;7307832;32;20522;-55
2023/04/18 19:50:19;;;;;;;15.82;13.95;;;10.30;99.90;;;;;;7304594;32;20129;-55
2023/04/18 19:54:21;;;;;;;14.90;13.27;;;10.30;99.90;;;;;;7310148;32;20472;-57
2023/04/18 19:58:43;;;;;;;15.43;13.82;;;10.40;99.90;;;;;;7303358;32;20128;-54
2023/04/18 20:02:45;;;;;;;15.05;13.45;;;10.30;99.90;;;;;;7301780;32;20256;-56
2023/04/18 20:06:47;;;;;;;16.00;14.27;;;10.40;99.90;;;;;;7307536;32;20139;-56
2023/04/18 20:10:48;;;;;;;15.38;13.77;;;10.40;99.90;;;;;;7301768;32;20175;-55
2023/04/18 20:14:50;;;;;;;18.23;12.95;;;10.40;99.90;;;;;;7307331;32;20594;-56
2023/04/18 20:18:52;;;;;;;15.38;13.30;;;10.40;99.90;;;;;;7301083;32;20195;-56
2023/04/18 20:22:55;;;;;;;14.65;12.93;;;10.40;99.90;;;;;;7299404;32;20727;-57
2023/04/18 20:26:58;;;;;;;16.10;14.40;;;10.40;99.90;;;;;;7305735;32;20895;-56
2023/04/18 20:31:00;;;;;;;14.98;13.38;;;10.30;99.90;;;;;;7308274;32;20112;-57
2023/04/18 20:35:03;;;;;;;16.05;14.07;;;10.30;99.90;;;;;;7309459;32;20119;-55
2023/04/18 20:39:05;;;;;;;15.20;13.60;;;10.20;99.90;;;;;;7304063;32;20199;-56
2023/04/18 20:43:06;;;;;;;15.48;13.18;;;10.20;99.90;;;;;;7302630;32;20208;-56
2023/04/18 20:47:09;;;;;;;15.30;13.13;;;10.20;99.90;;;;;;7308742;32;20115;-55